Forside
METAR-TAF:

METAR-TAF

Lufthavne :

Thule Air Base

Thule, Grønland

Breddekreds: 76-32N, længdekreds: 068-42W, højde: 77 m

Aktuelle vejr

Denne rapport blev lavet for 23 minutter siden, kl. 08:56 UTC
Vind 7 kt fra østsydøst
Temperatur -28°C
Fugtighed 75%
Tryk 1005 hPa
Sigt: 9000 m
skyfri
dis

METAR: BGTL 160856Z 11007KT 9000 BR CLR M28/M31 A2967 RMK AO2A SLP041 T12841306 55001 TSNO $

Tid: 05:19 (09:19 UTC)

Vejrudsigter

Denne rapport blev lavet for 15 timer og 19 minutter siden, kl. 18:00 UTC
Foreløbig gælder fra 15 på 18 UTC til 16 på 24 UTC
Vind 6 kt fra østsydøst
Sigt 10 km eller mere
Nogle få skyer i en højde af 100 ft
Nogle få skyer i en højde af 15000 ft
ændring
fra 16 på 11 UTC til 16 på 12 UTC
Vind 6 kt fra øst
Sigt: 1610 m
Nogle få skyer i en højde af 12000 ft

TAF: BGTL 151800Z 1518/1624 12006KT 9999 FEW001 FEW150 QNH2972INS BECMG 1611/1612 10006KT 9999 FEW120 QNH2975INS TXM25/1519Z TNM29/1617Z LAST NO AMDS AFT 1520 NEXT 1610

Vejrobservationer og prognoser fra mere end 4000 lufthavne (METAR og TAF).

De gule og røde prikker repræsenterer de meteorologiske stationer.

Flyt musen over at se navnet på stationen.

Så klik over at se vejr observationer og prognoser.

At skifte det kort: Klik på de grønne knapper med et sort kors for at zoome ind; på den grønne knap med en bindestreg for at zoome ud; eller på de grønne pile for tilstødende kort.


METAR-TAF: